Time;durP1;ratioP1;P1;durP2;ratioP2;P2;SDS_P1;SDS_P2;PMS_P1;PMS_P2;Temp;Humidity;BMP_temperature;BMP_pressure;BME280_temperature;BME280_humidity;BME280_pressure;Samples;Min_cycle;Max_cycle;Signal;HPM_P1;HPM_P2
2022/08/15 00:01:24;;;;;;;3.92;3.63;;;25.80;57.70;;;;;;5072643;28;20433;-66
2022/08/15 00:03:52;;;;;;;;;;;25.80;57.70;;;;;;5071712;28;20403;-66
2022/08/15 00:06:25;;;;;;;4.30;3.90;;;25.80;57.70;;;;;;5072281;28;20371;-66
2022/08/15 00:08:54;;;;;;;4.80;4.28;;;25.70;57.70;;;;;;5055213;28;20419;-66
2022/08/15 00:11:38;;;;;;;4.43;4.05;;;25.70;57.70;;;;;;5071304;28;20128;-66
2022/08/15 00:14:09;;;;;;;4.63;4.18;;;25.80;57.80;;;;;;5072472;28;20062;-66
2022/08/15 00:16:37;;;;;;;3.90;3.63;;;25.70;57.70;;;;;;5071136;28;20063;-65
2022/08/15 00:19:08;;;;;;;4.55;4.25;;;25.70;57.70;;;;;;5072211;28;20032;-65
2022/08/15 00:21:37;;;;;;;3.83;3.53;;;25.70;58.40;;;;;;5071559;28;20111;-66
2022/08/15 00:24:03;;;;;;;4.07;3.78;;;25.70;57.70;;;;;;5071192;28;20280;-66
2022/08/15 00:26:29;;;;;;;4.88;4.45;;;25.70;57.70;;;;;;5070894;28;20066;-66
2022/08/15 00:28:55;;;;;;;3.80;3.50;;;25.70;57.70;;;;;;5071160;28;20041;-66
2022/08/15 00:31:21;;;;;;;4.55;4.25;;;25.70;57.70;;;;;;5072187;28;20032;-66
2022/08/15 00:33:47;;;;;;;4.03;3.72;;;25.70;57.70;;;;;;5070719;28;20039;-66
2022/08/15 00:36:14;;;;;;;4.55;4.15;;;25.70;57.70;;;;;;5070867;28;20040;-65
2022/08/15 00:38:40;;;;;;;4.40;4.10;;;25.70;57.70;;;;;;5071204;28;20044;-66
2022/08/15 00:41:41;;;;;;;4.75;4.45;;;25.70;57.80;;;;;;5070834;28;20055;-66
2022/08/15 00:43:56;;;;;;;;;;;25.70;57.80;;;;;;5072233;28;20053;-66
2022/08/15 00:46:25;;;;;;;4.40;4.10;;;25.60;57.80;;;;;;5070621;28;20439;-66
2022/08/15 00:48:51;;;;;;;4.03;3.72;;;25.70;57.80;;;;;;5072167;28;20051;-66
2022/08/15 00:57:10;;;;;;;4.45;4.15;;;25.70;57.90;;;;;;5130295;27;20128;-66
2022/08/15 00:59:40;;;;;;;4.45;4.15;;;25.60;57.80;;;;;;5129404;28;20058;-66
2022/08/15 01:02:08;;;;;;;;;;;25.70;57.90;;;;;;5129732;28;20062;-66
2022/08/15 01:04:35;;;;;;;4.50;4.20;;;25.60;57.90;;;;;;5128856;28;20370;-65
2022/08/15 01:07:01;;;;;;;5.60;5.10;;;25.60;57.80;;;;;;5128851;28;20115;-66
2022/08/15 01:09:28;;;;;;;4.63;4.22;;;25.60;57.80;;;;;;5128935;28;20054;-66
2022/08/15 01:11:59;;;;;;;4.75;4.38;;;25.60;57.80;;;;;;5129303;28;20047;-66
2022/08/15 01:14:26;;;;;;;4.25;3.85;;;25.60;57.80;;;;;;5128720;28;20054;-66
2022/08/15 01:16:52;;;;;;;4.40;4.00;;;25.60;57.80;;;;;;5128598;28;20051;-66
2022/08/15 01:22:38;;;;;;;4.20;3.90;;;25.60;57.90;;;;;;5089433;27;20352;-66
2022/08/15 01:30:42;;;;;;;4.25;3.92;;;25.60;57.90;;;;;;5130221;27;20349;-66
2022/08/15 01:33:08;;;;;;;4.78;4.40;;;25.60;57.90;;;;;;5130430;27;20088;-66
2022/08/15 01:35:34;;;;;;;4.20;3.80;;;25.60;57.90;;;;;;5128852;28;20482;-66
2022/08/15 01:38:03;;;;;;;4.50;4.10;;;25.70;58.00;;;;;;5128934;28;20032;-66
2022/08/15 01:40:43;;;;;;;4.55;4.25;;;25.60;57.90;;;;;;5130018;27;20035;-66
2022/08/15 01:43:12;;;;;;;4.68;4.38;;;25.60;57.90;;;;;;5128997;27;20043;-65
2022/08/15 01:45:41;;;;;;;4.75;4.18;;;25.60;57.90;;;;;;5128928;28;20118;-66
2022/08/15 01:48:17;;;;;;;4.70;4.30;;;25.60;58.00;;;;;;5128612;28;20036;-66
2022/08/15 01:50:49;;;;;;;3.95;3.65;;;25.60;58.00;;;;;;5128838;28;20077;-66
2022/08/15 01:53:26;;;;;;;4.65;4.25;;;25.60;58.00;;;;;;5128688;28;20114;-66
2022/08/15 01:55:58;;;;;;;4.45;4.15;;;25.60;58.00;;;;;;5128691;28;20040;-66
2022/08/15 01:58:24;;;;;;;4.47;4.18;;;25.60;58.00;;;;;;5128733;28;20054;-66
2022/08/15 02:00:56;;;;;;;4.13;3.83;;;25.60;58.00;;;;;;5128807;28;20093;-66
2022/08/15 02:03:33;;;;;;;5.03;4.53;;;25.60;58.10;;;;;;5128700;28;20043;-65
2022/08/15 02:06:01;;;;;;;4.25;3.95;;;25.60;58.10;;;;;;5129615;27;20040;-66
2022/08/15 02:08:26;;;;;;;5.53;4.25;;;25.60;58.10;;;;;;5128173;28;20055;-66
2022/08/15 02:10:52;;;;;;;4.30;4.00;;;25.50;58.00;;;;;;5128304;28;20031;-66
2022/08/15 02:13:18;;;;;;;4.75;4.35;;;25.60;58.10;;;;;;5129471;28;20056;-66
2022/08/15 02:15:44;;;;;;;4.68;4.32;;;25.50;58.00;;;;;;5128233;27;20040;-66
2022/08/15 02:18:11;;;;;;;4.35;4.05;;;25.50;58.00;;;;;;5128110;28;20042;-65
2022/08/15 02:20:37;;;;;;;4.13;3.83;;;25.50;58.00;;;;;;5128364;28;20343;-66
2022/08/15 02:23:03;;;;;;;4.53;4.10;;;25.50;58.00;;;;;;5127923;28;20114;-66
2022/08/15 02:25:29;;;;;;;4.32;3.90;;;25.50;58.00;;;;;;5128264;28;20381;-66
2022/08/15 02:27:55;;;;;;;4.45;4.15;;;25.50;58.00;;;;;;5129209;28;20043;-65
2022/08/15 02:30:25;;;;;;;4.43;4.13;;;25.50;58.00;;;;;;5127718;28;20080;-66
2022/08/15 02:32:50;;;;;;;4.30;4.00;;;25.50;58.00;;;;;;5129064;27;20039;-66
2022/08/15 02:35:16;;;;;;;4.38;4.07;;;25.50;58.00;;;;;;5127827;28;20513;-66
2022/08/15 02:37:43;;;;;;;4.95;4.55;;;25.50;58.00;;;;;;5127913;28;20055;-65
2022/08/15 02:40:12;;;;;;;4.50;4.10;;;25.50;58.00;;;;;;5125307;27;20107;-66
2022/08/15 02:42:38;;;;;;;4.72;4.32;;;25.50;58.00;;;;;;5097248;28;20039;-66
2022/08/15 02:45:10;;;;;;;4.30;4.00;;;25.50;58.00;;;;;;5113928;28;20470;-66
2022/08/15 02:47:37;;;;;;;4.63;4.22;;;25.50;58.00;;;;;;5114147;28;20047;-66
2022/08/15 02:50:05;;;;;;;4.70;4.30;;;25.50;57.90;;;;;;5113760;28;20119;-66
2022/08/15 02:52:32;;;;;;;4.30;4.00;;;25.50;58.00;;;;;;5113770;28;20040;-66
2022/08/15 02:54:59;;;;;;;4.10;3.70;;;25.50;57.90;;;;;;5113724;28;20119;-66
2022/08/15 02:57:25;;;;;;;3.58;3.30;;;25.50;57.90;;;;;;5115025;28;20039;-68
2022/08/15 02:59:50;;;;;;;4.22;3.92;;;25.50;57.90;;;;;;5115248;28;20122;-66
2022/08/15 03:02:17;;;;;;;4.20;3.90;;;25.50;57.90;;;;;;5115027;28;20135;-66
2022/08/15 03:04:46;;;;;;;4.03;3.72;;;25.50;57.90;;;;;;5113866;28;20441;-65
2022/08/15 03:07:14;;;;;;;4.25;3.88;;;25.50;57.90;;;;;;5113448;28;20052;-66
2022/08/15 03:09:40;;;;;;;4.55;4.05;;;25.50;57.90;;;;;;5113356;28;20123;-66
2022/08/15 03:12:06;;;;;;;4.10;3.80;;;25.50;57.90;;;;;;5113698;28;20123;-66
2022/08/15 03:14:36;;;;;;;4.50;4.20;;;25.50;57.90;;;;;;5096661;28;20035;-65
2022/08/15 03:17:03;;;;;;;3.85;3.55;;;25.50;57.90;;;;;;5114718;28;20046;-66
2022/08/15 03:19:29;;;;;;;4.03;3.72;;;25.50;57.90;;;;;;5113409;28;20056;-66
2022/08/15 03:21:54;;;;;;;4.13;3.55;;;25.50;57.90;;;;;;5113150;28;20062;-66
2022/08/15 03:24:22;;;;;;;4.13;3.83;;;25.40;57.80;;;;;;5114401;28;20165;-66
2022/08/15 03:26:48;;;;;;;4.25;3.92;;;25.40;57.80;;;;;;5113284;28;20042;-66
2022/08/15 03:29:18;;;;;;;4.00;3.70;;;25.40;57.80;;;;;;5114137;28;20040;-66
2022/08/15 03:31:47;;;;;;;4.47;4.18;;;25.40;57.80;;;;;;5114380;28;20096;-65
2022/08/15 03:34:14;;;;;;;4.23;3.93;;;25.40;57.80;;;;;;5113247;28;20036;-66
2022/08/15 03:36:44;;;;;;;3.88;3.58;;;25.40;57.80;;;;;;5113219;28;20057;-66
2022/08/15 03:39:10;;;;;;;4.55;4.25;;;25.40;57.80;;;;;;5114324;28;20047;-66
2022/08/15 03:41:35;;;;;;;5.13;3.83;;;25.50;57.80;;;;;;5113138;28;20053;-66
2022/08/15 03:44:01;;;;;;;4.90;4.45;;;25.40;57.80;;;;;;5112740;28;20398;-66
2022/08/15 03:46:27;;;;;;;4.70;4.22;;;25.40;57.70;;;;;;5113006;28;20043;-66
2022/08/15 03:48:56;;;;;;;4.50;4.20;;;25.40;57.80;;;;;;5112981;28;20070;-66
2022/08/15 03:51:23;;;;;;;4.20;3.90;;;25.40;57.70;;;;;;5112587;28;20073;-65
2022/08/15 03:53:54;;;;;;;4.20;3.90;;;25.40;57.70;;;;;;5112283;28;20046;-66
2022/08/15 03:56:23;;;;;;;4.03;3.72;;;25.40;57.70;;;;;;5112678;28;20073;-66
2022/08/15 03:58:49;;;;;;;4.35;4.05;;;25.40;57.70;;;;;;5113890;28;20036;-66
2022/08/15 04:01:18;;;;;;;3.63;3.42;;;25.40;57.70;;;;;;5112704;28;20099;-65
2022/08/15 04:03:46;;;;;;;3.78;3.47;;;25.40;57.70;;;;;;5112458;28;20046;-66
2022/08/15 04:06:16;;;;;;;4.38;4.07;;;25.40;57.70;;;;;;5112357;28;20091;-65
2022/08/15 04:08:42;;;;;;;4.10;3.80;;;25.40;57.70;;;;;;5113704;28;20078;-66
2022/08/15 04:11:08;;;;;;;4.22;3.83;;;25.40;57.70;;;;;;5112251;28;20048;-66
2022/08/15 04:13:36;;;;;;;4.65;4.20;;;25.30;57.60;;;;;;5112528;28;20129;-66
2022/08/15 04:16:02;;;;;;;4.10;3.70;;;25.30;57.60;;;;;;5113891;28;20031;-66
2022/08/15 04:18:29;;;;;;;4.15;3.80;;;25.40;57.70;;;;;;5129482;27;20042;-65
2022/08/15 04:20:58;;;;;;;4.50;3.97;;;25.30;57.60;;;;;;5111943;28;20043;-66
2022/08/15 04:23:24;;;;;;;4.30;4.00;;;25.30;57.60;;;;;;5112092;28;20039;-66
2022/08/15 04:25:50;;;;;;;3.90;3.60;;;25.30;57.60;;;;;;5112031;28;20046;-66
2022/08/15 04:28:18;;;;;;;3.85;3.55;;;25.30;57.60;;;;;;5113001;28;20457;-66
2022/08/15 04:30:47;;;;;;;4.50;4.10;;;25.30;57.60;;;;;;5113187;28;20129;-66
2022/08/15 04:33:17;;;;;;;4.03;3.70;;;25.30;57.60;;;;;;5128883;27;20047;-66
2022/08/15 04:35:46;;;;;;;4.47;4.18;;;25.30;57.60;;;;;;5112069;28;20043;-66
2022/08/15 04:38:13;;;;;;;4.22;3.92;;;25.30;57.60;;;;;;5113137;28;20032;-66
2022/08/15 04:40:39;;;;;;;4.22;3.92;;;25.20;57.60;;;;;;5111736;28;20040;-66
2022/08/15 04:43:05;;;;;;;4.15;3.85;;;25.20;57.60;;;;;;5111631;28;20046;-66
2022/08/15 04:45:34;;;;;;;3.42;3.20;;;25.20;57.60;;;;;;5112953;28;20114;-66
2022/08/15 04:48:02;;;;;;;4.30;3.90;;;25.20;57.60;;;;;;5111717;28;20391;-66
2022/08/15 04:50:30;;;;;;;4.25;3.95;;;25.30;57.70;;;;;;5111507;28;20086;-66
2022/08/15 04:52:57;;;;;;;4.45;4.13;;;25.20;57.60;;;;;;5111775;28;20039;-66
2022/08/15 04:55:25;;;;;;;4.03;3.72;;;25.20;57.60;;;;;;5112672;28;20042;-66
2022/08/15 04:57:52;;;;;;;3.83;3.53;;;25.20;57.60;;;;;;5111491;28;20116;-66
2022/08/15 05:00:21;;;;;;;4.70;4.40;;;25.20;57.60;;;;;;5111332;28;20043;-66
2022/08/15 05:03:09;;;;;;;4.03;3.72;;;25.20;57.60;;;;;;5112607;28;20071;-66
2022/08/15 05:05:38;;;;;;;4.03;3.72;;;25.20;57.60;;;;;;5112459;28;20036;-66
2022/08/15 05:08:04;;;;;;;3.95;3.65;;;25.20;57.60;;;;;;5111484;28;20043;-66
2022/08/15 05:10:29;;;;;;;3.88;3.58;;;25.20;57.60;;;;;;5111181;28;20494;-66
2022/08/15 05:12:55;;;;;;;4.10;3.58;;;25.20;57.60;;;;;;5111628;28;20124;-66
2022/08/15 05:15:22;;;;;;;4.88;4.03;;;25.20;57.60;;;;;;5111089;28;20403;-65
2022/08/15 05:17:49;;;;;;;4.55;4.25;;;25.20;57.60;;;;;;5111338;28;20050;-66
2022/08/15 05:20:17;;;;;;;4.15;3.85;;;25.20;57.60;;;;;;5111092;28;20039;-66
2022/08/15 05:23:08;;;;;;;4.18;3.88;;;25.20;57.60;;;;;;5111317;28;20054;-66
2022/08/15 05:25:38;;;;;;;3.80;3.50;;;25.20;57.60;;;;;;5111017;28;20501;-66
2022/08/15 05:28:05;;;;;;;4.65;4.35;;;25.20;57.60;;;;;;5110953;28;20054;-66
2022/08/15 05:30:31;;;;;;;4.05;3.75;;;25.20;57.60;;;;;;5127849;28;20084;-66
2022/08/15 05:35:47;;;;;;;4.15;3.75;;;25.20;57.60;;;;;;5130262;27;20181;-66
2022/08/15 05:38:17;;;;;;;3.65;3.42;;;25.20;57.60;;;;;;5128851;28;20054;-66
2022/08/15 05:43:48;;;;;;;4.20;3.90;;;25.20;57.70;;;;;;5153006;27;1157210;-66
2022/08/15 05:46:24;;;;;;;4.53;4.22;;;25.10;57.50;;;;;;5153455;27;20371;-66
2022/08/15 05:49:01;;;;;;;4.30;3.95;;;25.20;57.60;;;;;;5152853;27;20038;-68
2022/08/15 05:51:52;;;;;;;4.60;4.25;;;25.20;57.60;;;;;;5153092;27;20117;-66
2022/08/15 05:59:49;;;;;;;4.10;3.80;;;25.20;57.60;;;;;;5130417;27;20354;-66
2022/08/15 06:02:31;;;;;;;3.75;3.45;;;25.10;57.50;;;;;;5129035;28;20051;-66
2022/08/15 06:05:03;;;;;;;4.43;4.13;;;25.20;57.60;;;;;;5128876;28;20126;-66
2022/08/15 06:07:31;;;;;;;4.57;4.18;;;25.10;57.60;;;;;;5128825;28;20543;-66
2022/08/15 06:10:01;;;;;;;4.78;4.38;;;25.20;57.60;;;;;;5128764;28;20075;-66
2022/08/15 06:12:34;;;;;;;4.85;4.45;;;25.20;57.50;;;;;;5129090;28;20047;-65
2022/08/15 06:15:10;;;;;;;3.80;3.58;;;25.20;57.60;;;;;;5128714;28;20401;-66
2022/08/15 06:17:50;;;;;;;4.18;3.80;;;25.10;57.50;;;;;;5129921;27;20441;-66
2022/08/15 06:20:20;;;;;;;4.07;3.77;;;25.20;57.60;;;;;;5128993;28;20035;-66
2022/08/15 06:23:09;;;;;;;4.57;4.22;;;25.10;57.50;;;;;;5128605;28;20309;-66
2022/08/15 06:25:48;;;;;;;4.80;4.40;;;25.20;57.60;;;;;;5128504;28;20044;-66
2022/08/15 06:31:20;;;;;;;4.13;3.83;;;25.10;57.50;;;;;;5130317;27;20350;-66
2022/08/15 06:34:24;;;;;;;4.18;3.72;;;25.10;57.50;;;;;;5129039;28;20043;-66
2022/08/15 06:40:08;;;;;;;3.53;3.33;;;25.10;57.50;;;;;;5130377;27;20402;-66
2022/08/15 06:42:37;;;;;;;4.50;4.10;;;25.20;57.60;;;;;;5129149;28;20043;-66
2022/08/15 06:45:26;;;;;;;4.10;3.80;;;25.10;57.50;;;;;;5129034;28;20034;-66
2022/08/15 06:47:59;;;;;;;3.60;3.30;;;25.10;57.50;;;;;;5129001;28;20501;-66
2022/08/15 06:50:33;;;;;;;4.68;4.30;;;25.20;57.60;;;;;;5128668;28;20051;-66
2022/08/15 06:53:08;;;;;;;3.97;3.58;;;25.20;57.50;;;;;;5129076;28;20089;-66
2022/08/15 06:55:45;;;;;;;4.43;4.13;;;25.10;57.50;;;;;;5129907;27;20035;-66
2022/08/15 06:58:16;;;;;;;4.43;4.10;;;25.10;57.50;;;;;;5128549;28;20040;-66
2022/08/15 07:06:10;;;;;;;3.55;3.35;;;25.20;57.60;;;;;;5130273;27;20690;-66
2022/08/15 07:11:23;;;;;;;3.97;3.67;;;25.20;57.50;;;;;;5130290;27;20406;-65
2022/08/15 07:19:16;;;;;;;3.95;3.72;;;25.20;57.50;;;;;;5130363;27;20411;-66
2022/08/15 07:21:43;;;;;;;4.68;4.32;;;25.20;57.50;;;;;;5129211;28;20054;-66
2022/08/15 07:24:11;;;;;;;3.90;3.60;;;25.20;57.50;;;;;;5129255;28;20062;-66
2022/08/15 07:32:48;;;;;;;3.85;3.55;;;25.20;57.50;;;;;;5130318;27;20345;-68
2022/08/15 07:38:01;;;;;;;3.75;3.45;;;25.20;57.40;;;;;;5130365;27;20763;-66
2022/08/15 07:43:35;;;;;;;4.60;4.20;;;25.20;57.40;;;;;;5130282;27;20909;-66
2022/08/15 07:46:10;;;;;;;4.70;4.30;;;25.20;57.40;;;;;;5129258;28;20390;-66
2022/08/15 07:48:35;;;;;;;4.70;4.30;;;25.20;57.40;;;;;;5128811;28;20550;-66
2022/08/15 07:56:34;;;;;;;4.47;4.07;;;25.20;57.40;;;;;;5153080;27;1158472;-66
2022/08/15 07:59:22;;;;;;;4.30;4.00;;;25.20;57.30;;;;;;5153107;27;20271;-66
2022/08/15 08:01:50;;;;;;;4.57;4.28;;;25.20;57.30;;;;;;5153208;27;20034;-66
2022/08/15 08:04:26;;;;;;;3.90;3.60;;;25.20;57.30;;;;;;5153406;27;20046;-66
2022/08/15 08:09:43;;;;;;;4.63;4.27;;;25.20;57.20;;;;;;5152971;27;1160430;-66
2022/08/15 08:12:23;;;;;;;4.35;4.03;;;25.20;57.30;;;;;;5153396;27;20639;-66
2022/08/15 08:20:51;;;;;;;4.65;4.25;;;25.20;57.20;;;;;;5130299;27;20192;-65
2022/08/15 08:23:37;;;;;;;5.28;4.88;;;25.20;57.20;;;;;;5129241;28;20120;-66
2022/08/15 08:41:24;;;;;;;5.30;4.80;;;25.20;57.20;;;;;;5153032;27;1158990;-66
2022/08/15 08:42:57;;;;;;;4.90;4.43;;;25.30;57.40;;;;;;5152887;27;20050;-66
2022/08/15 08:45:34;;;;;;;4.38;4.07;;;25.30;57.40;;;;;;5171612;27;20050;-66
2022/08/15 08:48:15;;;;;;;5.40;4.90;;;25.20;57.30;;;;;;5171768;27;20520;-66
2022/08/15 08:54:07;;;;;;;4.72;4.32;;;25.20;57.30;;;;;;5130251;27;20771;-66
2022/08/15 08:56:44;;;;;;;4.93;4.53;;;25.30;57.30;;;;;;5128742;27;20061;-66
2022/08/15 09:01:57;;;;;;;4.18;3.88;;;25.30;57.30;;;;;;5130816;27;20402;-66
2022/08/15 09:04:33;;;;;;;4.43;3.42;;;25.30;57.10;;;;;;5128898;28;20053;-66
2022/08/15 09:07:00;;;;;;;4.13;3.83;;;25.30;57.10;;;;;;5129150;28;20047;-66
2022/08/15 09:15:02;;;;;;;4.25;3.70;;;25.30;57.10;;;;;;5128870;27;20054;-66
2022/08/15 09:17:33;;;;;;;4.63;3.95;;;25.30;57.00;;;;;;5129173;27;20043;-66
2022/08/15 09:22:48;;;;;;;4.63;4.22;;;25.30;57.00;;;;;;5089379;27;20419;-65
2022/08/15 09:25:14;;;;;;;4.63;4.32;;;25.30;57.10;;;;;;5087985;28;20510;-66
2022/08/15 09:27:48;;;;;;;5.18;4.78;;;25.30;57.10;;;;;;5105312;28;20036;-66
2022/08/15 09:30:15;;;;;;;5.07;4.68;;;25.30;57.20;;;;;;5088245;28;20040;-66
2022/08/15 09:47:01;;;;;;;5.32;4.82;;;25.30;57.20;;;;;;5108558;27;20480;-66
2022/08/15 09:49:45;;;;;;;4.68;4.38;;;25.40;57.00;;;;;;5108635;28;20123;-66
2022/08/15 09:52:30;;;;;;;4.93;4.50;;;25.30;57.10;;;;;;5108468;28;20040;-66
2022/08/15 09:55:07;;;;;;;4.20;3.83;;;25.30;57.10;;;;;;5108658;28;20112;-66
2022/08/15 09:57:39;;;;;;;4.47;4.18;;;25.30;57.30;;;;;;5109617;28;20040;-66
2022/08/15 10:00:38;;;;;;;4.88;4.47;;;25.30;57.40;;;;;;5108592;28;20040;-66
2022/08/15 10:03:22;;;;;;;5.47;5.07;;;25.30;57.30;;;;;;5108274;28;20044;-66
2022/08/15 10:06:08;;;;;;;5.18;4.70;;;25.30;57.50;;;;;;5109522;28;20046;-66
2022/08/15 10:14:27;;;;;;;7.07;6.47;;;25.30;57.90;;;;;;5130394;27;20792;-65
2022/08/15 10:17:04;;;;;;;7.55;6.80;;;25.30;58.40;;;;;;5128976;28;20044;-65
2022/08/15 10:19:35;;;;;;;7.03;6.43;;;25.30;58.40;;;;;;5128930;28;20470;-67
2022/08/15 10:33:52;;;;;;;5.30;4.90;;;25.30;58.50;;;;;;5089473;28;20352;-66
2022/08/15 10:36:25;;;;;;;4.80;4.50;;;25.30;57.40;;;;;;5088475;28;20040;-66
2022/08/15 10:42:02;;;;;;;4.82;4.43;;;25.30;57.40;;;;;;5130326;27;20760;-66
2022/08/15 10:50:42;;;;;;;4.97;4.47;;;25.30;57.30;;;;;;5130281;27;20110;-66
2022/08/15 10:56:26;;;;;;;4.93;4.47;;;25.30;58.10;;;;;;5130120;27;20358;-66
2022/08/15 10:59:09;;;;;;;5.00;4.60;;;25.30;57.30;;;;;;5128930;28;20594;-66
2022/08/15 11:01:37;;;;;;;4.63;4.32;;;25.40;57.40;;;;;;5130173;27;20039;-66
2022/08/15 11:06:46;;;;;;;4.63;4.28;;;25.30;57.40;;;;;;5130259;27;20415;-66
2022/08/15 11:09:14;;;;;;;;;;;25.40;57.40;;;;;;5129372;28;20043;-66
2022/08/15 11:11:52;;;;;;;5.05;4.55;;;25.40;57.40;;;;;;5129198;28;19938;-66
2022/08/15 11:14:26;;;;;;;4.82;4.45;;;25.40;57.40;;;;;;5128771;28;20039;-66
2022/08/15 11:16:52;;;;;;;4.95;4.47;;;25.30;57.30;;;;;;5129168;28;20075;-65
2022/08/15 11:22:05;;;;;;;5.30;4.88;;;25.40;57.30;;;;;;5130406;27;20346;-66
2022/08/15 11:24:37;;;;;;;4.53;4.22;;;25.40;57.30;;;;;;5128971;28;20058;-66
2022/08/15 11:29:52;;;;;;;5.00;4.60;;;25.40;57.30;;;;;;5130634;27;20189;-66
2022/08/15 11:32:37;;;;;;;4.82;4.53;;;25.40;57.30;;;;;;5128984;28;20043;-66
2022/08/15 11:35:19;;;;;;;4.78;4.38;;;25.40;57.30;;;;;;5128877;28;20495;-66
2022/08/15 11:37:45;;;;;;;4.78;4.38;;;25.40;57.30;;;;;;5130217;27;20126;-66
2022/08/15 11:40:27;;;;;;;5.57;5.10;;;25.40;57.30;;;;;;5130089;28;20114;-66
2022/08/15 11:42:53;;;;;;;4.85;4.50;;;25.40;57.30;;;;;;5128853;28;20044;-66
2022/08/15 11:45:23;;;;;;;5.05;4.65;;;25.40;57.40;;;;;;5128961;28;20039;-66
2022/08/15 11:47:53;;;;;;;5.40;4.90;;;25.40;57.30;;;;;;5128897;28;20086;-66
2022/08/15 11:50:41;;;;;;;5.25;4.85;;;25.40;57.30;;;;;;5128602;28;20058;-68
2022/08/15 11:53:09;;;;;;;4.95;4.55;;;25.40;57.30;;;;;;5128770;28;20506;-66
2022/08/15 12:00:57;;;;;;;5.18;4.78;;;25.40;57.30;;;;;;5130247;27;20350;-66
2022/08/15 12:08:53;;;;;;;5.10;4.70;;;25.40;57.30;;;;;;5130172;27;20640;-66
2022/08/15 12:11:24;;;;;;;5.22;4.82;;;25.50;57.40;;;;;;5128885;28;20048;-66
2022/08/15 12:13:54;;;;;;;;;;;25.50;57.40;;;;;;5129476;28;20039;-66
2022/08/15 12:19:39;;;;;;;5.75;5.35;;;25.40;57.30;;;;;;5130239;27;20868;-66
2022/08/15 12:22:14;;;;;;;5.30;4.90;;;25.50;57.40;;;;;;5129102;28;20062;-66
2022/08/15 12:24:43;;;;;;;4.97;4.57;;;25.50;57.40;;;;;;5128980;28;20035;-66
2022/08/15 12:27:10;;;;;;;6.32;5.82;;;25.50;57.40;;;;;;5129151;28;20079;-65
2022/08/15 12:29:38;;;;;;;5.15;4.75;;;25.50;57.40;;;;;;5128844;28;20047;-65
2022/08/15 12:32:06;;;;;;;5.07;4.68;;;25.50;57.40;;;;;;5145922;27;20063;-66
2022/08/15 12:34:38;;;;;;;5.10;4.80;;;25.50;57.40;;;;;;5129068;28;20073;-66
2022/08/15 12:37:07;;;;;;;5.45;5.03;;;25.50;57.40;;;;;;5128803;28;20131;-66
2022/08/15 12:39:36;;;;;;;5.43;5.03;;;25.50;57.40;;;;;;5130051;27;20070;-66
2022/08/15 12:42:02;;;;;;;5.20;4.80;;;25.50;57.40;;;;;;5128641;28;20475;-66
2022/08/15 12:44:34;;;;;;;5.57;5.13;;;25.50;57.40;;;;;;5128476;28;20047;-66
2022/08/15 12:47:00;;;;;;;4.88;4.57;;;25.50;57.40;;;;;;5128737;28;20399;-66
2022/08/15 12:49:26;;;;;;;5.55;5.13;;;25.50;57.40;;;;;;5128754;28;20418;-65
2022/08/15 12:51:52;;;;;;;5.30;4.90;;;25.50;57.40;;;;;;5128314;28;20054;-66
2022/08/15 12:54:18;;;;;;;4.93;4.55;;;25.50;57.40;;;;;;5128810;27;20039;-66
2022/08/15 12:56:44;;;;;;;4.53;4.20;;;25.50;57.50;;;;;;5129447;27;20035;-66
2022/08/15 12:59:11;;;;;;;4.63;4.32;;;25.50;57.40;;;;;;5145357;27;20483;-66
2022/08/15 13:01:40;;;;;;;5.43;4.90;;;25.50;57.40;;;;;;5128427;28;20046;-66
2022/08/15 13:04:10;;;;;;;5.30;4.90;;;25.50;57.40;;;;;;5128374;28;20035;-66
2022/08/15 13:09:24;;;;;;;4.55;4.25;;;25.50;57.40;;;;;;5089434;28;20394;-66
2022/08/15 13:11:50;;;;;;;5.32;4.70;;;25.50;58.20;;;;;;5088114;28;20471;-66
2022/08/15 13:14:17;;;;;;;5.63;5.13;;;25.50;57.50;;;;;;5088074;28;20041;-66
2022/08/15 13:16:45;;;;;;;4.63;4.28;;;25.50;57.40;;;;;;5071412;28;20062;-66
2022/08/15 13:19:25;;;;;;;5.57;4.82;;;25.50;57.50;;;;;;5088424;28;20043;-66
2022/08/15 13:24:39;;;;;;;5.22;4.82;;;25.50;57.50;;;;;;5087835;28;20092;-66
2022/08/15 13:27:06;;;;;;;5.65;5.20;;;25.50;57.40;;;;;;5089041;28;20090;-66
2022/08/15 13:29:32;;;;;;;5.40;4.90;;;25.50;57.40;;;;;;5087986;28;20097;-66
2022/08/15 13:31:59;;;;;;;5.50;5.00;;;25.50;57.40;;;;;;5089137;28;20054;-66
2022/08/15 13:34:25;;;;;;;5.45;4.97;;;25.50;57.40;;;;;;5087744;28;20040;-68
2022/08/15 13:36:51;;;;;;;4.57;4.28;;;25.50;57.50;;;;;;5087763;28;20500;-66
2022/08/15 13:39:21;;;;;;;4.88;4.47;;;25.50;57.50;;;;;;5087813;28;20043;-66
2022/08/15 13:41:48;;;;;;;5.05;4.65;;;25.50;57.40;;;;;;5088892;28;20115;-66
2022/08/15 13:44:15;;;;;;;4.47;4.18;;;25.50;57.50;;;;;;5087485;28;20116;-66
2022/08/15 13:46:42;;;;;;;5.25;4.85;;;25.50;57.50;;;;;;5087767;28;20090;-66
2022/08/15 13:49:11;;;;;;;5.22;4.72;;;25.50;57.50;;;;;;5088599;28;20040;-66
2022/08/15 13:51:44;;;;;;;4.93;4.53;;;25.50;57.50;;;;;;5088725;28;20032;-66
2022/08/15 13:54:12;;;;;;;4.35;3.95;;;25.50;57.50;;;;;;5087568;28;20067;-66
2022/08/15 13:56:38;;;;;;;4.57;4.18;;;25.50;57.80;;;;;;5087249;28;20037;-66
2022/08/15 13:59:06;;;;;;;5.30;4.78;;;25.50;57.50;;;;;;5087152;28;20069;-66
2022/08/15 14:01:33;;;;;;;5.35;4.95;;;25.50;57.40;;;;;;5087532;28;20040;-66
2022/08/15 14:04:06;;;;;;;5.13;4.63;;;25.50;57.40;;;;;;5087202;28;20118;-65
2022/08/15 14:06:35;;;;;;;5.10;4.68;;;25.60;57.60;;;;;;5087063;28;20124;-66
2022/08/15 14:09:00;;;;;;;5.03;4.63;;;25.50;57.40;;;;;;5086823;28;20056;-66
2022/08/15 14:11:26;;;;;;;4.88;4.47;;;25.60;57.50;;;;;;5087183;28;20055;-66
2022/08/15 14:13:52;;;;;;;4.90;4.60;;;25.50;57.40;;;;;;5087027;28;20047;-66
2022/08/15 14:16:19;;;;;;;5.88;4.80;;;25.60;57.50;;;;;;5088485;28;20041;-66
2022/08/15 14:18:46;;;;;;;4.88;4.53;;;25.60;57.50;;;;;;5085645;28;20079;-67
2022/08/15 14:21:12;;;;;;;4.63;4.32;;;25.50;57.40;;;;;;5074490;28;20488;-66
2022/08/15 14:23:38;;;;;;;4.85;4.50;;;25.50;57.40;;;;;;5073316;28;20377;-66
2022/08/15 14:26:05;;;;;;;4.97;4.57;;;25.60;57.40;;;;;;5074658;28;20040;-66
2022/08/15 14:28:32;;;;;;;5.00;4.60;;;25.60;57.40;;;;;;5073186;28;20055;-66
2022/08/15 14:30:59;;;;;;;4.70;4.32;;;25.60;57.40;;;;;;5073116;28;20032;-66
2022/08/15 14:33:27;;;;;;;4.20;3.90;;;25.60;57.40;;;;;;5073162;28;20037;-66
2022/08/15 14:35:56;;;;;;;4.28;3.97;;;25.60;57.30;;;;;;5074364;28;20090;-66
2022/08/15 14:38:24;;;;;;;3.70;3.50;;;25.60;57.40;;;;;;5073091;28;20067;-66
2022/08/15 14:40:50;;;;;;;4.53;4.13;;;25.60;57.30;;;;;;5072981;28;20048;-66
2022/08/15 14:43:16;;;;;;;3.95;3.65;;;25.60;57.30;;;;;;5074333;28;20070;-66
2022/08/15 14:45:43;;;;;;;4.05;3.75;;;25.60;57.30;;;;;;5095318;22;20047;-66
2022/08/15 14:48:12;;;;;;;4.55;4.22;;;25.60;57.20;;;;;;5049624;28;20053;-66
2022/08/15 14:50:37;;;;;;;4.13;3.72;;;25.60;57.20;;;;;;5032642;28;20068;-66
2022/08/15 14:53:05;;;;;;;4.32;4.03;;;25.60;57.20;;;;;;5033121;28;20069;-66
2022/08/15 14:55:32;;;;;;;4.30;4.00;;;25.60;57.10;;;;;;5032731;28;20064;-66
2022/08/15 14:57:59;;;;;;;4.03;3.72;;;25.60;57.10;;;;;;5049532;28;20041;-66
2022/08/15 15:00:25;;;;;;;3.53;3.33;;;25.60;57.10;;;;;;5032729;28;20053;-66
2022/08/15 15:02:55;;;;;;;4.28;3.88;;;25.60;57.10;;;;;;5032865;28;20052;-66
2022/08/15 15:05:21;;;;;;;4.00;3.70;;;25.70;57.10;;;;;;5049513;28;20096;-66
2022/08/15 15:07:47;;;;;;;3.95;3.65;;;25.60;57.00;;;;;;5033791;28;20099;-66
2022/08/15 15:10:13;;;;;;;4.32;4.03;;;25.70;57.00;;;;;;5032628;28;20428;-66
2022/08/15 15:12:39;;;;;;;4.82;4.43;;;25.60;56.90;;;;;;5032642;28;20120;-66
2022/08/15 15:15:06;;;;;;;4.68;4.28;;;25.60;57.00;;;;;;5032457;28;20060;-66
2022/08/15 15:17:33;;;;;;;4.15;3.75;;;25.60;56.90;;;;;;5032615;28;20056;-66
2022/08/15 15:19:59;;;;;;;3.85;3.55;;;25.70;57.00;;;;;;5032271;28;20045;-66
2022/08/15 15:22:25;;;;;;;3.92;3.60;;;25.70;57.00;;;;;;5032462;28;20103;-66
2022/08/15 15:24:53;;;;;;;3.72;3.42;;;25.70;57.00;;;;;;5032226;28;20048;-66
2022/08/15 15:27:20;;;;;;;4.18;3.88;;;25.70;56.90;;;;;;5032085;28;20049;-66
2022/08/15 15:29:46;;;;;;;4.45;4.15;;;25.70;57.00;;;;;;5032385;28;20045;-66
2022/08/15 15:32:12;;;;;;;4.07;3.78;;;25.70;57.00;;;;;;5031255;28;20033;-66
2022/08/15 15:34:38;;;;;;;4.18;3.88;;;25.70;57.00;;;;;;5032287;28;20374;-66
2022/08/15 15:37:03;;;;;;;4.30;4.00;;;25.70;57.00;;;;;;5032025;28;20037;-66
2022/08/15 15:39:34;;;;;;;4.03;3.72;;;25.70;56.90;;;;;;5033379;28;20034;-66
2022/08/15 15:42:00;;;;;;;4.38;4.07;;;25.70;56.90;;;;;;5031939;28;20045;-66
2022/08/15 15:44:27;;;;;;;3.97;3.67;;;25.70;56.90;;;;;;5031836;28;20544;-66
2022/08/15 15:46:57;;;;;;;4.20;3.90;;;25.70;56.90;;;;;;5031645;28;20053;-65
2022/08/15 15:52:16;;;;;;;4.00;3.67;;;25.70;57.00;;;;;;5129081;27;20392;-66
2022/08/15 15:54:42;;;;;;;3.50;3.30;;;25.80;56.70;;;;;;5128905;28;20044;-66
2022/08/15 15:57:09;;;;;;;4.22;3.92;;;25.70;56.80;;;;;;5128850;28;20081;-66